createdAt,value
2018-10-11T00:00:48.423Z,99.99
2018-10-11T00:01:48.409Z,99.99
2018-10-11T00:02:48.407Z,99.99
2018-10-11T00:03:48.400Z,99.99
2018-10-11T00:04:48.392Z,99.99
2018-10-11T00:05:48.387Z,99.99
2018-10-11T00:06:48.378Z,99.99
2018-10-11T00:07:48.379Z,99.99
2018-10-11T00:08:48.374Z,99.99
2018-10-11T00:09:48.367Z,99.99
2018-10-11T00:10:48.364Z,99.99
2018-10-11T00:11:48.357Z,99.99
2018-10-11T00:12:48.350Z,99.99
2018-10-11T00:13:48.349Z,99.99
2018-10-11T00:14:48.350Z,99.99
2018-10-11T00:15:48.361Z,99.99
2018-10-11T00:16:48.332Z,99.99
2018-10-11T00:17:48.329Z,99.99
2018-10-11T00:18:48.319Z,99.99
2018-10-11T00:19:48.317Z,99.99
2018-10-11T00:20:48.307Z,99.99
2018-10-11T00:21:48.303Z,99.99
2018-10-11T00:22:48.301Z,99.99
2018-10-11T00:23:48.293Z,99.99
2018-10-11T00:24:48.286Z,99.99
2018-10-11T00:25:48.300Z,99.99
2018-10-11T00:26:48.277Z,99.99
2018-10-11T00:27:48.275Z,99.99
2018-10-11T00:28:48.264Z,99.99
2018-10-11T00:29:48.261Z,99.99
2018-10-11T00:30:48.317Z,99.99
2018-10-11T00:31:48.250Z,99.99
2018-10-11T00:32:48.859Z,99.99
2018-10-11T00:33:48.245Z,99.99
2018-10-11T00:34:48.245Z,99.99
2018-10-11T00:35:48.229Z,99.99
2018-10-11T00:36:48.230Z,99.99
2018-10-11T00:37:48.219Z,99.99
2018-10-11T00:38:48.214Z,99.99
2018-10-11T00:39:48.205Z,99.99
2018-10-11T00:40:48.199Z,99.99
2018-10-11T00:41:48.213Z,99.99
2018-10-11T00:42:48.191Z,99.99
2018-10-11T00:43:48.189Z,99.99
2018-10-11T00:44:48.180Z,99.99
2018-10-11T00:45:48.171Z,99.99
2018-10-11T00:46:48.166Z,99.99
2018-10-11T00:47:48.161Z,99.99
2018-10-11T00:48:48.158Z,99.99
2018-10-11T00:49:48.151Z,99.99
2018-10-11T00:50:48.150Z,99.99
2018-10-11T00:51:48.144Z,99.99
2018-10-11T00:52:48.134Z,99.99
2018-10-11T00:53:48.140Z,99.99
2018-10-11T00:54:48.123Z,99.99
2018-10-11T00:55:48.119Z,99.99
2018-10-11T00:56:48.109Z,99.99
2018-10-11T00:57:48.113Z,99.99
2018-10-11T00:58:48.109Z,99.99
2018-10-11T00:59:48.098Z,99.99
2018-10-11T01:00:48.090Z,99.99
2018-10-11T01:01:48.085Z,99.99
2018-10-11T01:02:48.076Z,99.99
2018-10-11T01:03:48.069Z,99.99
2018-10-11T01:04:48.065Z,99.99
2018-10-11T01:05:48.061Z,99.99
2018-10-11T01:06:48.053Z,99.99
2018-10-11T01:07:48.048Z,99.99
2018-10-11T01:08:48.057Z,99.99
2018-10-11T01:09:48.068Z,99.99
2018-10-11T01:10:48.045Z,99.99
2018-10-11T01:11:48.032Z,99.99
2018-10-11T01:12:48.020Z,99.99
2018-10-11T01:13:48.015Z,99.99
2018-10-11T01:14:48.014Z,99.99
2018-10-11T01:15:48.011Z,99.99
2018-10-11T01:16:47.998Z,99.99
2018-10-11T01:17:47.993Z,99.99
2018-10-11T01:18:47.993Z,99.99
2018-10-11T01:19:47.979Z,99.99
2018-10-11T01:20:47.974Z,99.99
2018-10-11T01:21:47.969Z,99.99
2018-10-11T01:22:47.961Z,99.99
2018-10-11T01:23:48.002Z,99.99
2018-10-11T01:24:47.953Z,99.99
2018-10-11T01:25:47.949Z,99.99
2018-10-11T01:26:47.942Z,99.99
2018-10-11T01:27:47.935Z,99.99
2018-10-11T01:28:47.926Z,99.99
2018-10-11T01:29:48.074Z,99.99
2018-10-11T01:30:47.934Z,99.99
2018-10-11T01:31:47.915Z,99.99
2018-10-11T01:32:47.907Z,99.99
2018-10-11T01:33:47.915Z,99.99
2018-10-11T01:34:47.902Z,99.99
2018-10-11T01:35:47.890Z,99.99
2018-10-11T01:36:47.883Z,99.99
2018-10-11T01:37:48.380Z,99.99
2018-10-11T01:38:47.961Z,99.99
2018-10-11T01:39:47.884Z,99.99
2018-10-11T01:40:47.864Z,99.99
2018-10-11T01:41:47.851Z,99.99
2018-10-11T01:42:47.849Z,99.99
2018-10-11T01:43:47.848Z,99.99
2018-10-11T01:44:48.382Z,99.99
2018-10-11T01:45:47.831Z,99.99
2018-10-11T01:46:47.840Z,99.99
2018-10-11T01:47:47.818Z,99.99
2018-10-11T01:48:47.828Z,99.99
2018-10-11T01:49:47.812Z,99.99
2018-10-11T01:50:47.801Z,99.99
2018-10-11T01:51:47.813Z,99.99
2018-10-11T01:52:47.792Z,99.99
2018-10-11T01:53:47.785Z,99.99
2018-10-11T01:54:47.777Z,99.99
2018-10-11T01:55:47.775Z,99.99
2018-10-11T01:56:47.789Z,99.99
2018-10-11T01:57:47.761Z,99.99
2018-10-11T01:58:47.761Z,99.99
2018-10-11T01:59:47.756Z,99.99
2018-10-11T02:00:47.744Z,99.99
2018-10-11T02:01:47.734Z,99.99
2018-10-11T02:02:47.732Z,99.99
2018-10-11T02:03:47.723Z,99.99
2018-10-11T02:04:47.724Z,99.99
2018-10-11T02:05:47.710Z,99.99
2018-10-11T02:06:47.710Z,99.99
2018-10-11T02:07:47.707Z,99.99
2018-10-11T02:08:47.700Z,99.99
2018-10-11T02:09:47.686Z,99.99
2018-10-11T02:10:47.687Z,99.99
2018-10-11T02:11:47.675Z,99.99
2018-10-11T02:12:47.682Z,99.99
2018-10-11T02:13:47.667Z,99.99
2018-10-11T02:14:47.668Z,99.99
2018-10-11T02:15:47.658Z,99.99
2018-10-11T02:16:47.656Z,99.99
2018-10-11T02:17:47.641Z,99.99
2018-10-11T02:18:47.651Z,99.99
2018-10-11T02:19:47.630Z,99.99
2018-10-11T02:20:47.626Z,99.99
2018-10-11T02:21:47.620Z,99.99
2018-10-11T02:22:47.631Z,99.99
2018-10-11T02:23:47.608Z,99.99
2018-10-11T02:24:47.612Z,99.99
2018-10-11T02:25:47.593Z,99.99
2018-10-11T02:26:47.588Z,99.99
2018-10-11T02:27:47.584Z,99.99
2018-10-11T02:28:47.577Z,99.99
2018-10-11T02:29:47.572Z,99.99
2018-10-11T02:30:47.562Z,99.99
2018-10-11T02:31:47.568Z,99.99
2018-10-11T02:32:47.550Z,99.99
2018-10-11T02:33:47.547Z,99.99
2018-10-11T02:34:47.544Z,99.99
2018-10-11T02:35:47.532Z,99.99
2018-10-11T02:36:47.530Z,99.99
2018-10-11T02:37:47.521Z,99.99
2018-10-11T02:38:47.515Z,99.99
2018-10-11T02:39:47.507Z,99.99
2018-10-11T02:40:48.407Z,99.99
2018-10-11T02:41:47.496Z,99.99
2018-10-11T02:42:47.492Z,99.99
2018-10-11T02:43:47.484Z,99.99
2018-10-11T02:44:47.490Z,99.99
2018-10-11T02:45:47.471Z,99.99
2018-10-11T02:46:47.464Z,99.99
2018-10-11T02:47:47.457Z,99.99
2018-10-11T02:48:47.457Z,99.99
2018-10-11T02:49:47.446Z,99.99
2018-10-11T02:50:47.443Z,99.99
2018-10-11T02:51:47.434Z,99.99
2018-10-11T02:52:47.455Z,99.99
2018-10-11T02:53:47.426Z,99.99
2018-10-11T02:54:47.416Z,99.99
2018-10-11T02:55:47.406Z,99.99
2018-10-11T02:56:47.410Z,99.99
2018-10-11T02:57:47.396Z,99.99
2018-10-11T02:58:47.390Z,99.99
2018-10-11T02:59:47.389Z,99.99
2018-10-11T03:00:47.380Z,99.99
2018-10-11T03:01:47.373Z,99.99
2018-10-11T03:02:47.367Z,99.99
2018-10-11T03:03:47.361Z,99.99
2018-10-11T03:04:47.356Z,99.99
2018-10-11T03:05:47.347Z,99.99
2018-10-11T03:06:47.343Z,99.99
2018-10-11T03:07:47.338Z,99.99
2018-10-11T03:08:47.326Z,99.99
2018-10-11T03:09:47.335Z,99.99
2018-10-11T03:10:47.321Z,99.99
2018-10-11T03:11:47.313Z,99.99
2018-10-11T03:12:47.300Z,99.99
2018-10-11T03:13:47.299Z,99.99
2018-10-11T03:14:47.288Z,99.99
2018-10-11T03:15:47.287Z,99.99
2018-10-11T03:16:47.277Z,99.99
2018-10-11T03:17:47.272Z,99.99
2018-10-11T03:19:01.926Z,99.99
2018-10-11T03:19:47.266Z,99.99
2018-10-11T03:20:47.251Z,99.99
2018-10-11T03:21:47.246Z,99.99
2018-10-11T03:22:47.236Z,99.99
2018-10-11T03:23:47.233Z,99.99
2018-10-11T03:24:47.226Z,99.99
2018-10-11T03:25:47.224Z,99.99
2018-10-11T03:26:47.218Z,99.99
2018-10-11T03:27:47.209Z,99.99
2018-10-11T03:28:47.200Z,99.99
2018-10-11T03:29:47.196Z,99.99
2018-10-11T03:30:47.192Z,99.99
2018-10-11T03:31:47.203Z,99.99
2018-10-11T03:32:47.185Z,99.99
2018-10-11T03:33:47.179Z,99.99
2018-10-11T03:34:47.168Z,99.99
2018-10-11T03:35:47.162Z,99.99
2018-10-11T03:36:47.156Z,99.99
2018-10-11T03:37:47.149Z,99.99
2018-10-11T03:38:47.165Z,99.99
2018-10-11T03:39:47.150Z,99.99
2018-10-11T03:40:47.133Z,99.99
2018-10-11T03:41:47.126Z,99.99
2018-10-11T03:42:47.115Z,99.99
2018-10-11T03:43:47.112Z,99.99
2018-10-11T03:44:47.102Z,99.99
2018-10-11T03:45:47.096Z,99.99
2018-10-11T03:46:47.089Z,99.99
2018-10-11T03:47:47.088Z,99.99
2018-10-11T03:48:47.087Z,99.99
2018-10-11T03:49:47.077Z,99.99
2018-10-11T03:50:47.067Z,99.99
2018-10-11T03:51:47.061Z,99.99
2018-10-11T03:52:47.052Z,99.99
2018-10-11T03:53:47.051Z,99.99
2018-10-11T03:54:47.044Z,99.99
2018-10-11T03:55:47.033Z,99.99
2018-10-11T03:56:47.024Z,99.99
2018-10-11T03:57:47.020Z,99.99
2018-10-11T03:58:47.035Z,99.99
2018-10-11T03:59:47.007Z,99.99
2018-10-11T04:00:47.003Z,99.99
2018-10-11T04:01:46.995Z,99.99
2018-10-11T04:02:46.989Z,99.99
2018-10-11T04:03:46.979Z,99.99
2018-10-11T04:04:46.975Z,99.99
2018-10-11T04:05:46.973Z,99.99
2018-10-11T04:06:46.967Z,99.99
2018-10-11T04:07:46.960Z,99.99
2018-10-11T04:08:46.947Z,99.99
2018-10-11T04:09:46.939Z,99.99
2018-10-11T04:10:46.941Z,99.99
2018-10-11T04:11:46.935Z,99.99
2018-10-11T04:12:46.926Z,99.99
2018-10-11T04:13:46.924Z,99.99
2018-10-11T04:14:46.912Z,99.99
2018-10-11T04:15:46.906Z,99.99
2018-10-11T04:16:46.897Z,99.99
2018-10-11T04:17:46.891Z,99.99
2018-10-11T04:18:47.450Z,99.99
2018-10-11T04:19:46.878Z,99.99
2018-10-11T04:20:46.872Z,99.99
2018-10-11T04:21:46.862Z,99.99
2018-10-11T04:22:46.858Z,99.99
2018-10-11T04:23:46.853Z,99.99
2018-10-11T04:24:46.843Z,99.99
2018-10-11T04:25:46.837Z,99.99
2018-10-11T04:26:46.839Z,99.99
2018-10-11T04:27:46.826Z,99.99
2018-10-11T04:28:46.817Z,99.99
2018-10-11T04:29:46.812Z,99.99
2018-10-11T04:30:46.806Z,99.99
2018-10-11T04:31:46.797Z,99.99
2018-10-11T04:32:46.795Z,99.99
2018-10-11T04:33:46.791Z,99.99
2018-10-11T04:34:46.775Z,99.99
2018-10-11T04:35:46.772Z,99.99
2018-10-11T04:36:46.763Z,99.99
2018-10-11T04:37:46.762Z,99.99
2018-10-11T04:38:46.752Z,99.99
2018-10-11T04:39:46.747Z,99.99
2018-10-11T04:40:46.748Z,99.99
2018-10-11T04:41:46.740Z,99.99
2018-10-11T04:42:46.780Z,99.99
2018-10-11T04:43:46.764Z,99.99
2018-10-11T04:44:46.711Z,99.99
2018-10-11T04:45:46.706Z,99.99
2018-10-11T04:46:46.699Z,99.99
2018-10-11T04:47:46.691Z,99.99
2018-10-11T04:48:46.688Z,99.99
2018-10-11T04:49:46.681Z,99.99
2018-10-11T04:50:46.672Z,99.99
2018-10-11T04:51:46.673Z,99.99
2018-10-11T04:52:46.658Z,99.99
2018-10-11T04:53:46.649Z,99.99
2018-10-11T04:54:46.648Z,99.99
2018-10-11T04:55:46.656Z,99.99
2018-10-11T04:56:46.645Z,99.99
2018-10-11T04:57:46.627Z,99.99
2018-10-11T04:58:46.622Z,99.99
2018-10-11T04:59:46.641Z,99.99
2018-10-11T05:00:46.609Z,99.99
2018-10-11T05:01:46.597Z,99.99
2018-10-11T05:02:46.595Z,99.99
2018-10-11T05:03:46.590Z,99.99
2018-10-11T05:04:46.583Z,99.99
2018-10-11T05:05:46.578Z,99.99
2018-10-11T05:06:46.564Z,99.99
2018-10-11T05:07:46.559Z,99.99
2018-10-11T05:08:46.551Z,99.99
2018-10-11T05:09:46.546Z,99.99
2018-10-11T05:10:46.564Z,99.99
2018-10-11T05:11:46.542Z,99.99
2018-10-11T05:12:46.530Z,99.99
2018-10-11T05:13:46.518Z,99.99
2018-10-11T05:14:46.513Z,99.99
2018-10-11T05:15:46.506Z,99.99
2018-10-11T05:16:46.499Z,99.99
2018-10-11T05:17:46.497Z,99.99
2018-10-11T05:18:46.486Z,99.99
2018-10-11T05:19:46.498Z,99.99
2018-10-11T05:20:46.493Z,99.99
2018-10-11T05:21:46.465Z,99.99
2018-10-11T05:22:46.465Z,99.99
2018-10-11T05:23:46.456Z,99.99
2018-10-11T05:24:46.463Z,99.99
2018-10-11T05:25:46.446Z,99.99
2018-10-11T05:26:46.434Z,99.99
2018-10-11T05:27:46.433Z,99.99
2018-10-11T05:28:46.422Z,99.99
2018-10-11T05:29:46.421Z,99.99
2018-10-11T05:30:46.422Z,99.99
2018-10-11T05:31:46.414Z,99.99
2018-10-11T05:32:46.395Z,99.99
2018-10-11T05:33:46.394Z,99.99
2018-10-11T05:34:46.390Z,99.99
2018-10-11T05:35:46.378Z,99.99
2018-10-11T05:36:46.374Z,99.99
2018-10-11T05:37:46.373Z,99.99
2018-10-11T05:38:46.364Z,99.99
2018-10-11T05:39:46.356Z,99.99
2018-10-11T05:40:46.348Z,99.99
2018-10-11T05:41:46.339Z,99.99
2018-10-11T05:42:46.337Z,99.99
2018-10-11T05:43:46.326Z,99.99
2018-10-11T05:44:46.328Z,99.99
2018-10-11T05:45:46.332Z,99.99
2018-10-11T05:46:46.312Z,99.99
2018-10-11T05:47:46.298Z,99.99
2018-10-11T05:48:46.293Z,99.99
2018-10-11T05:49:46.289Z,99.99
2018-10-11T05:50:46.301Z,99.99
2018-10-11T05:51:46.274Z,99.99
2018-10-11T05:52:46.269Z,99.99
2018-10-11T05:53:46.260Z,99.99
2018-10-11T05:54:46.260Z,99.99
2018-10-11T05:55:46.250Z,99.99
2018-10-11T05:56:46.327Z,99.99
2018-10-11T05:57:46.996Z,99.99
2018-10-11T05:58:46.229Z,99.99
2018-10-11T05:59:46.223Z,99.99
2018-10-11T06:00:46.226Z,99.99
2018-10-11T06:01:46.213Z,99.99
2018-10-11T06:02:46.208Z,99.99
2018-10-11T06:03:46.204Z,99.99
2018-10-11T06:04:46.256Z,99.99
2018-10-11T06:05:46.202Z,99.99
2018-10-11T06:06:46.180Z,99.99
2018-10-11T06:07:46.174Z,99.99
2018-10-11T06:08:46.166Z,99.99
2018-10-11T06:09:46.159Z,99.99
2018-10-11T06:10:46.153Z,99.99
2018-10-11T06:11:46.206Z,99.99
2018-10-11T06:12:46.138Z,99.99
2018-10-11T06:13:46.135Z,99.99
2018-10-11T06:14:46.129Z,99.99
2018-10-11T06:15:46.126Z,99.99
2018-10-11T06:16:46.116Z,99.99
2018-10-11T06:17:46.117Z,99.99
2018-10-11T06:18:46.098Z,99.99
2018-10-11T06:19:46.101Z,99.99
2018-10-11T06:20:46.104Z,99.99
2018-10-11T06:21:46.085Z,99.99
2018-10-11T06:22:46.073Z,99.99
2018-10-11T06:23:46.068Z,99.99
2018-10-11T06:24:46.144Z,99.99
2018-10-11T06:25:46.062Z,99.99
2018-10-11T06:26:46.051Z,99.99
2018-10-11T06:27:46.083Z,99.99
2018-10-11T06:28:46.040Z,99.99
2018-10-11T06:29:46.036Z,99.99
2018-10-11T06:30:46.031Z,99.99
2018-10-11T06:31:46.014Z,99.99
2018-10-11T06:32:46.005Z,99.99
2018-10-11T06:33:46.011Z,99.99
2018-10-11T06:34:45.999Z,99.99
2018-10-11T06:35:46.103Z,99.99
2018-10-11T06:36:45.987Z,99.99
2018-10-11T06:37:45.982Z,99.99
2018-10-11T06:38:45.969Z,99.99
2018-10-11T06:39:45.964Z,99.99
2018-10-11T06:40:45.957Z,99.99
2018-10-11T06:41:45.970Z,99.99
2018-10-11T06:42:46.037Z,99.99
2018-10-11T06:43:45.939Z,99.99
2018-10-11T06:44:45.932Z,99.99
2018-10-11T06:45:45.929Z,99.99
2018-10-11T06:46:45.924Z,99.99
2018-10-11T06:47:45.920Z,99.99
2018-10-11T06:48:45.915Z,99.99
2018-10-11T06:49:45.932Z,99.99
2018-10-11T06:50:45.895Z,99.99
2018-10-11T06:51:45.891Z,99.99
2018-10-11T06:52:45.884Z,99.99
2018-10-11T06:53:45.879Z,99.99
2018-10-11T06:54:45.878Z,99.99
2018-10-11T06:55:45.900Z,99.99
2018-10-11T06:56:45.861Z,99.99
2018-10-11T06:57:45.857Z,99.99
2018-10-11T06:58:45.861Z,99.99
2018-10-11T06:59:46.526Z,99.99
2018-10-11T07:00:45.830Z,99.99
2018-10-11T07:01:45.863Z,99.99
2018-10-11T07:02:45.822Z,99.99
2018-10-11T07:03:45.821Z,99.99
2018-10-11T07:04:45.811Z,99.99
2018-10-11T07:05:45.806Z,99.99
2018-10-11T07:06:45.806Z,99.99
2018-10-11T07:07:45.790Z,99.99
2018-10-11T07:08:45.782Z,99.99
2018-10-11T07:09:45.783Z,99.99
2018-10-11T07:10:45.775Z,99.99
2018-10-11T07:11:45.771Z,99.99
2018-10-11T07:12:45.765Z,99.99
2018-10-11T07:13:45.797Z,99.99
2018-10-11T07:14:45.750Z,99.99
2018-10-11T07:15:45.741Z,99.99
2018-10-11T07:16:45.762Z,99.99
2018-10-11T07:17:45.735Z,99.99
2018-10-11T07:18:45.731Z,99.99
2018-10-11T07:19:45.722Z,99.99
2018-10-11T07:20:45.712Z,99.99
2018-10-11T07:21:45.707Z,99.99
2018-10-11T07:22:45.701Z,99.99
2018-10-11T07:23:45.698Z,99.99
2018-10-11T07:24:45.696Z,99.99
2018-10-11T07:25:45.737Z,99.99
2018-10-11T07:26:45.690Z,99.99
2018-10-11T07:27:45.673Z,99.99
2018-10-11T07:28:45.666Z,99.99
2018-10-11T07:29:45.658Z,99.99
2018-10-11T07:30:45.656Z,99.99
2018-10-11T07:31:45.670Z,99.99
2018-10-11T07:32:45.650Z,99.99
2018-10-11T07:33:45.638Z,99.99
2018-10-11T07:34:45.726Z,99.99
2018-10-11T07:35:45.624Z,99.99
2018-10-11T07:36:45.616Z,99.99
2018-10-11T07:37:45.612Z,99.99
2018-10-11T07:38:45.608Z,99.99
2018-10-11T07:39:45.608Z,99.99
2018-10-11T07:40:45.633Z,99.99
2018-10-11T07:41:45.597Z,99.99
2018-10-11T07:42:45.587Z,99.99
2018-10-11T07:43:45.578Z,99.99
2018-10-11T07:44:45.575Z,99.99
2018-10-11T07:45:45.564Z,99.99
2018-10-11T07:46:45.563Z,99.99
2018-10-11T07:47:45.556Z,99.99
2018-10-11T07:48:45.558Z,99.99
2018-10-11T07:49:45.543Z,99.99
2018-10-11T07:50:45.538Z,99.99
2018-10-11T07:51:45.533Z,99.99
2018-10-11T07:52:45.533Z,99.99
2018-10-11T07:53:45.534Z,99.99
2018-10-11T07:54:46.051Z,99.99
2018-10-11T07:55:45.510Z,99.99
2018-10-11T07:56:45.502Z,99.99
2018-10-11T07:57:45.518Z,99.99
2018-10-11T07:58:45.491Z,99.99
2018-10-11T07:59:45.494Z,99.99
2018-10-11T08:00:45.492Z,99.99
2018-10-11T08:01:45.558Z,99.99
2018-10-11T08:02:45.479Z,99.99
2018-10-11T08:03:45.468Z,99.99
2018-10-11T08:04:45.459Z,99.99
2018-10-11T08:05:45.455Z,99.99
2018-10-11T08:06:45.453Z,99.99
2018-10-11T08:07:45.507Z,99.99
2018-10-11T08:08:45.452Z,99.99
2018-10-11T08:09:45.435Z,99.99
2018-10-11T08:10:45.499Z,99.99
2018-10-11T08:11:45.552Z,99.99
2018-10-11T08:12:45.416Z,99.99
2018-10-11T08:13:45.421Z,99.99
2018-10-11T08:14:45.409Z,99.99
2018-10-11T08:15:45.407Z,99.99
2018-10-11T08:16:45.514Z,99.99
2018-10-11T08:17:45.752Z,99.99
2018-10-11T08:18:45.432Z,99.99
2018-10-11T08:19:45.417Z,99.99
2018-10-11T08:20:45.372Z,99.99
2018-10-11T08:21:45.423Z,99.99
2018-10-11T08:22:45.372Z,99.99
2018-10-11T08:23:45.364Z,99.99
2018-10-11T08:24:45.515Z,99.99
2018-10-11T08:25:45.664Z,99.99
2018-10-11T08:26:45.398Z,99.99
2018-10-11T08:27:45.338Z,99.99
2018-10-11T08:28:45.334Z,99.99
2018-10-11T08:29:45.331Z,99.99
2018-10-11T08:30:45.327Z,99.99
2018-10-11T08:31:45.419Z,99.99
2018-10-11T08:32:45.317Z,99.99
2018-10-11T08:33:45.306Z,99.99
2018-10-11T08:34:45.308Z,99.99
2018-10-11T08:35:45.303Z,99.99
2018-10-11T08:36:45.288Z,99.99
2018-10-11T08:37:45.416Z,99.99
2018-10-11T08:38:45.286Z,99.72
2018-10-11T08:39:45.283Z,99.99
2018-10-11T08:40:45.270Z,99.24
2018-10-11T08:41:45.269Z,99.01
2018-10-11T08:42:45.262Z,97.85
2018-10-11T08:43:45.274Z,96.56
2018-10-11T08:44:45.255Z,95.36
2018-10-11T08:45:45.250Z,93.92
2018-10-11T08:46:45.243Z,93.20
2018-10-11T08:47:45.240Z,91.76
2018-10-11T08:48:45.263Z,88.73
2018-10-11T08:49:45.234Z,87.24
2018-10-11T08:50:45.287Z,85.65
2018-10-11T08:51:45.239Z,85.27
2018-10-11T08:52:45.224Z,83.86
2018-10-11T08:53:45.275Z,82.85
2018-10-11T08:54:45.212Z,82.27
2018-10-11T08:55:45.270Z,82.08
2018-10-11T08:56:45.212Z,80.77
2018-10-11T08:57:45.222Z,80.14
2018-10-11T08:58:45.210Z,78.50
2018-10-11T08:59:45.300Z,76.57
2018-10-11T09:00:45.407Z,77.83
2018-10-11T09:01:45.205Z,77.53
2018-10-11T09:02:45.206Z,76.86
2018-10-11T09:03:45.427Z,76.57
2018-10-11T09:04:45.208Z,76.71
2018-10-11T09:05:45.208Z,75.36
2018-10-11T09:06:45.208Z,74.05
2018-10-11T09:07:45.209Z,72.92
2018-10-11T09:08:45.207Z,71.22
2018-10-11T09:09:45.209Z,70.36
2018-10-11T09:10:45.217Z,70.54
2018-10-11T09:11:45.211Z,68.62
2018-10-11T09:12:45.210Z,69.29
2018-10-11T09:13:45.217Z,69.10
2018-10-11T09:14:45.220Z,68.55
2018-10-11T09:15:45.229Z,68.55
2018-10-11T09:16:45.228Z,67.78
2018-10-11T09:17:45.234Z,68.65
2018-10-11T09:18:45.230Z,68.30
2018-10-11T09:19:45.239Z,66.94
2018-10-11T09:20:45.235Z,66.36
2018-10-11T09:21:45.237Z,67.04
2018-10-11T09:22:45.238Z,66.17
2018-10-11T09:23:45.244Z,64.76
2018-10-11T09:24:45.255Z,64.59
2018-10-11T09:25:45.246Z,64.40
2018-10-11T09:26:45.258Z,62.69
2018-10-11T09:27:46.107Z,63.85
2018-10-11T09:28:45.256Z,62.69
2018-10-11T09:29:45.262Z,63.27
2018-10-11T09:30:45.262Z,62.72
2018-10-11T09:31:45.268Z,61.76
2018-10-11T09:32:45.285Z,62.53
2018-10-11T09:33:45.279Z,61.76
2018-10-11T09:34:45.276Z,61.30
2018-10-11T09:35:45.288Z,60.21
2018-10-11T09:36:45.289Z,61.27
2018-10-11T09:37:45.289Z,60.88
2018-10-11T09:38:45.296Z,60.78
2018-10-11T09:39:45.302Z,60.72
2018-10-11T09:40:45.304Z,60.69
2018-10-11T09:41:45.310Z,61.76
2018-10-11T09:42:45.316Z,61.72
2018-10-11T09:43:45.314Z,61.43
2018-10-11T09:44:45.325Z,61.59
2018-10-11T09:45:45.321Z,60.91
2018-10-11T09:46:45.331Z,59.27
2018-10-11T09:47:45.333Z,58.72
2018-10-11T09:48:45.382Z,58.91
2018-10-11T09:49:45.351Z,58.62
2018-10-11T09:50:45.350Z,59.17
2018-10-11T09:51:45.350Z,60.07
2018-10-11T09:52:45.353Z,58.62
2018-10-11T09:53:45.365Z,58.81
2018-10-11T09:54:45.397Z,57.84
2018-10-11T09:55:45.369Z,57.07
2018-10-11T09:56:45.373Z,57.75
2018-10-11T09:57:45.379Z,57.36
2018-10-11T09:58:45.386Z,58.88
2018-10-11T09:59:45.430Z,58.98
2018-10-11T10:00:45.396Z,58.20
2018-10-11T10:01:45.395Z,57.23
2018-10-11T10:02:45.409Z,59.36
2018-10-11T10:03:45.408Z,59.53
2018-10-11T10:04:45.438Z,58.98
2018-10-11T10:05:45.435Z,58.75
2018-10-11T10:06:45.424Z,59.72
2018-10-11T10:07:45.424Z,59.79
2018-10-11T10:08:45.438Z,59.79
2018-10-11T10:09:45.489Z,60.57
2018-10-11T10:10:45.451Z,61.05
2018-10-11T10:11:45.444Z,60.78
2018-10-11T10:12:45.467Z,59.91
2018-10-11T10:13:45.450Z,60.11
2018-10-11T10:14:45.458Z,58.78
2018-10-11T10:15:45.465Z,58.49
2018-10-11T10:16:45.472Z,59.66
2018-10-11T10:17:45.468Z,60.24
2018-10-11T10:18:45.474Z,60.36
2018-10-11T10:19:45.481Z,60.17
2018-10-11T10:20:45.488Z,58.23
2018-10-11T10:21:45.497Z,57.55
2018-10-11T10:22:45.493Z,57.55
2018-10-11T10:23:45.503Z,57.84
2018-10-11T10:24:45.506Z,58.74
2018-10-11T10:25:45.509Z,57.58
2018-10-11T10:26:45.564Z,57.00
2018-10-11T10:27:45.522Z,56.71
2018-10-11T10:28:45.529Z,56.05
2018-10-11T10:29:45.536Z,56.05
2018-10-11T10:30:45.537Z,55.28
2018-10-11T10:31:45.541Z,57.29
2018-10-11T10:32:45.555Z,57.03
2018-10-11T10:33:45.562Z,55.77
2018-10-11T10:34:45.556Z,55.35
2018-10-11T10:35:45.560Z,56.41
2018-10-11T10:36:45.581Z,55.96
2018-10-11T10:37:45.576Z,56.61
2018-10-11T10:38:45.581Z,57.42
2018-10-11T10:39:45.600Z,56.45
2018-10-11T10:40:45.594Z,55.02
2018-10-11T10:41:45.598Z,55.31
2018-10-11T10:42:45.604Z,54.85
2018-10-11T10:43:45.619Z,54.27
2018-10-11T10:44:45.619Z,54.36
2018-10-11T10:45:45.624Z,55.33
2018-10-11T10:46:45.629Z,55.04
2018-10-11T10:47:45.645Z,52.78
2018-10-11T10:48:45.705Z,55.21
2018-10-11T10:49:45.649Z,53.83
2018-10-11T10:50:45.655Z,54.90
2018-10-11T10:51:45.654Z,53.70
2018-10-11T10:52:45.655Z,55.54
2018-10-11T10:53:45.660Z,54.96
2018-10-11T10:54:45.669Z,57.48
2018-10-11T10:55:45.676Z,55.93
2018-10-11T10:56:45.678Z,57.39
2018-10-11T10:57:45.684Z,56.35
2018-10-11T10:58:45.693Z,56.28
2018-10-11T10:59:45.701Z,55.60
2018-10-11T11:00:45.705Z,54.92
2018-10-11T11:01:45.709Z,54.27
2018-10-11T11:02:45.715Z,53.78
2018-10-11T11:03:45.719Z,52.13
2018-10-11T11:04:45.725Z,53.49
2018-10-11T11:05:45.734Z,52.72
2018-10-11T11:06:45.739Z,52.52
2018-10-11T11:07:45.752Z,52.59
2018-10-11T11:08:45.751Z,53.85
2018-10-11T11:09:45.757Z,53.85
2018-10-11T11:10:45.764Z,52.88
2018-10-11T11:11:45.772Z,54.46
2018-10-11T11:12:45.777Z,53.59
2018-10-11T11:13:45.786Z,53.03
2018-10-11T11:14:45.791Z,51.35
2018-10-11T11:15:45.802Z,52.42
2018-10-11T11:16:45.807Z,53.08
2018-10-11T11:17:45.809Z,53.56
2018-10-11T11:18:45.862Z,53.85
2018-10-11T11:19:45.817Z,53.56
2018-10-11T11:20:45.829Z,54.44
2018-10-11T11:21:45.832Z,54.14
2018-10-11T11:22:45.835Z,54.92
2018-10-11T11:23:45.841Z,53.85
2018-10-11T11:24:45.845Z,52.30
2018-10-11T11:25:45.855Z,53.27
2018-10-11T11:26:45.867Z,53.85
2018-10-11T11:27:45.868Z,55.14
2018-10-11T11:28:45.877Z,53.97
2018-10-11T11:29:45.879Z,53.13
2018-10-11T11:30:45.886Z,52.25
2018-10-11T11:31:45.891Z,52.09
2018-10-11T11:32:45.895Z,50.63
2018-10-11T11:33:45.903Z,50.60
2018-10-11T11:34:45.917Z,52.35
2018-10-11T11:35:45.917Z,52.57
2018-10-11T11:36:45.922Z,51.21
2018-10-11T11:37:45.934Z,52.09
2018-10-11T11:38:45.936Z,51.01
2018-10-11T11:39:45.942Z,52.19
2018-10-11T11:40:45.956Z,51.70
2018-10-11T11:41:45.956Z,50.46
2018-10-11T11:42:45.961Z,50.48
2018-10-11T11:43:47.707Z,50.78
2018-10-11T11:44:45.974Z,49.58
2018-10-11T11:45:46.005Z,48.51
2018-10-11T11:46:45.985Z,48.97
2018-10-11T11:47:45.991Z,49.56
2018-10-11T11:48:46.002Z,50.92
2018-10-11T11:49:46.000Z,51.97
2018-10-11T11:50:46.016Z,51.99
2018-10-11T11:51:46.021Z,50.82
2018-10-11T11:52:46.022Z,51.11
2018-10-11T11:53:46.029Z,50.04
2018-10-11T11:54:46.034Z,49.95
2018-10-11T11:55:46.041Z,49.92
2018-10-11T11:56:46.048Z,50.70
2018-10-11T11:57:46.053Z,50.48
2018-10-11T11:58:46.051Z,51.35
2018-10-11T11:59:46.067Z,50.77
2018-10-11T12:00:46.066Z,50.31
2018-10-11T12:01:46.071Z,50.31
2018-10-11T12:02:46.145Z,49.46
2018-10-11T12:03:46.085Z,49.54
2018-10-11T12:04:46.089Z,49.32
2018-10-11T12:05:46.098Z,50.68
2018-10-11T12:06:46.099Z,50.38
2018-10-11T12:07:46.104Z,51.75
2018-10-11T12:08:46.110Z,50.19
2018-10-11T12:09:46.116Z,50.68
2018-10-11T12:10:46.143Z,50.48
2018-10-11T12:11:46.140Z,50.65
2018-10-11T12:12:46.134Z,50.56
2018-10-11T12:13:46.142Z,50.77
2018-10-11T12:14:46.147Z,50.56
2018-10-11T12:15:46.152Z,50.26
2018-10-11T12:16:46.251Z,50.46
2018-10-11T12:17:46.167Z,51.01
2018-10-11T12:18:46.172Z,51.59
2018-10-11T12:19:46.177Z,53.24
2018-10-11T12:20:46.181Z,51.72
2018-10-11T12:21:46.187Z,51.33
2018-10-11T12:22:46.190Z,50.84
2018-10-11T12:23:46.197Z,50.77
2018-10-11T12:24:46.241Z,49.80
2018-10-11T12:25:46.216Z,49.90
2018-10-11T12:26:46.214Z,49.80
2018-10-11T12:27:46.220Z,49.61
2018-10-11T12:28:46.287Z,50.19
2018-10-11T12:29:46.228Z,50.09
2018-10-11T12:30:46.234Z,50.60
2018-10-11T12:31:46.243Z,51.77
2018-10-11T12:32:46.247Z,50.53
2018-10-11T12:33:46.258Z,49.99
2018-10-11T12:34:46.260Z,46.98
2018-10-11T12:35:46.267Z,47.15
2018-10-11T12:36:46.268Z,48.32
2018-10-11T12:37:46.311Z,49.68
2018-10-11T12:38:46.372Z,49.87
2018-10-11T12:39:46.288Z,49.32
2018-10-11T12:40:46.295Z,48.44
2018-10-11T12:41:46.301Z,46.67
2018-10-11T12:42:46.308Z,47.32
2018-10-11T12:43:47.425Z,47.59
2018-10-11T12:44:46.315Z,47.59
2018-10-11T12:45:46.326Z,48.25
2018-10-11T12:46:46.328Z,49.61
2018-10-11T12:47:46.330Z,49.61
2018-10-11T12:48:46.338Z,50.94
2018-10-11T12:49:48.468Z,50.77
2018-10-11T12:50:46.343Z,50.21
2018-10-11T12:51:46.380Z,49.46
2018-10-11T12:52:46.358Z,49.68